Time;durP1;ratioP1;P1;durP2;ratioP2;P2;SDS_P1;SDS_P2;PMS_P1;PMS_P2;Temp;Humidity;BMP_temperature;BMP_pressure;BME280_temperature;BME280_humidity;BME280_pressure;Samples;Min_cycle;Max_cycle;Signal;HPM_P1;HPM_P2
2021/09/14 00:00:56;;;;;;;0.00;0.00;;;11.10;99.90;;;;;;5082875;28;20046;-85
2021/09/14 00:03:23;;;;;;;0.00;0.00;;;11.10;99.90;;;;;;5099204;28;20042;-85
2021/09/14 00:05:50;;;;;;;0.00;0.00;;;11.10;99.90;;;;;;5082643;28;20036;-85
2021/09/14 00:08:16;;;;;;;0.00;0.00;;;11.10;99.90;;;;;;5099038;28;20040;-85
2021/09/14 00:10:43;;;;;;;0.00;0.00;;;11.10;99.90;;;;;;5082639;28;20558;-85
2021/09/14 00:13:10;;;;;;;0.00;0.00;;;11.10;99.90;;;;;;5111543;28;20055;-85
2021/09/14 00:15:37;;;;;;;0.00;0.00;;;11.10;99.90;;;;;;5079119;28;20044;-84
2021/09/14 00:18:04;;;;;;;0.00;0.00;;;11.10;99.90;;;;;;5111852;28;20085;-85
2021/09/14 00:20:31;;;;;;;0.00;0.00;;;11.10;99.90;;;;;;5112121;28;20036;-85
2021/09/14 00:22:58;;;;;;;0.00;0.00;;;11.00;99.90;;;;;;5078667;28;20040;-87
2021/09/14 00:25:25;;;;;;;0.00;0.00;;;11.00;99.90;;;;;;5078737;28;20403;-85
2021/09/14 00:27:51;;;;;;;0.00;0.00;;;11.00;99.90;;;;;;5128875;28;20040;-85
2021/09/14 00:30:21;;;;;;;0.00;0.00;;;11.00;99.90;;;;;;5078482;28;20475;-85
2021/09/14 00:32:48;;;;;;;0.00;0.00;;;11.10;99.90;;;;;;5111607;28;20498;-85
2021/09/14 00:35:15;;;;;;;0.00;0.00;;;11.00;99.90;;;;;;5078361;28;20040;-85
2021/09/14 00:37:41;;;;;;;0.00;0.00;;;11.00;99.90;;;;;;5095055;28;20036;-85
2021/09/14 00:40:09;;;;;;;0.00;0.00;;;11.00;99.90;;;;;;5078159;28;20521;-85
2021/09/14 00:42:36;;;;;;;0.00;0.00;;;11.00;99.90;;;;;;5095228;28;20119;-85
2021/09/14 00:45:05;;;;;;;0.00;0.00;;;11.00;99.90;;;;;;5094823;28;20122;-85
2021/09/14 00:47:32;;;;;;;0.00;0.00;;;11.00;99.90;;;;;;5095022;28;20040;-85
2021/09/14 00:50:00;;;;;;;0.00;0.00;;;11.00;99.90;;;;;;5111563;28;20469;-85
2021/09/14 00:52:28;;;;;;;0.00;0.00;;;11.00;99.90;;;;;;5111833;28;20501;-85
2021/09/14 00:54:55;;;;;;;0.00;0.00;;;11.00;99.90;;;;;;5094799;28;20101;-85
2021/09/14 00:57:21;;;;;;;0.00;0.00;;;11.00;99.90;;;;;;5077049;28;20036;-85
2021/09/14 00:59:48;;;;;;;0.00;0.00;;;11.00;99.90;;;;;;5111151;28;20036;-85
2021/09/14 01:02:15;;;;;;;0.10;0.10;;;10.90;99.90;;;;;;5111150;28;20436;-85
2021/09/14 01:04:42;;;;;;;0.00;0.00;;;10.90;99.90;;;;;;5094540;28;20395;-85
2021/09/14 01:07:09;;;;;;;0.00;0.00;;;11.00;99.90;;;;;;5094300;28;20040;-85
2021/09/14 01:09:37;;;;;;;0.05;0.05;;;10.90;99.90;;;;;;5094601;28;20087;-85
2021/09/14 01:12:05;;;;;;;0.00;0.00;;;10.90;99.90;;;;;;5110835;28;20079;-85
2021/09/14 01:14:31;;;;;;;0.00;0.00;;;10.90;99.90;;;;;;5094360;28;20079;-84
2021/09/14 01:16:58;;;;;;;0.00;0.00;;;10.90;99.90;;;;;;5077960;28;20083;-85
2021/09/14 01:19:25;;;;;;;0.00;0.00;;;10.90;99.90;;;;;;5094077;28;20079;-85
2021/09/14 01:21:52;;;;;;;0.00;0.00;;;10.90;99.90;;;;;;5094788;28;20043;-84
2021/09/14 01:24:18;;;;;;;0.00;0.00;;;10.90;99.90;;;;;;5110529;28;20093;-85
2021/09/14 01:26:45;;;;;;;0.00;0.00;;;10.80;99.90;;;;;;5094522;28;20044;-85
2021/09/14 01:30:12;;;;;;;0.00;0.00;;;11.00;99.90;;;;;;5110524;28;20100;-85
2021/09/14 01:32:02;;;;;;;0.00;0.00;;;11.00;99.90;;;;;;5114154;28;20559;-85
2021/09/14 01:34:29;;;;;;;0.00;0.00;;;11.00;99.90;;;;;;5110208;28;20118;-85
2021/09/14 01:36:56;;;;;;;0.00;0.00;;;11.10;99.90;;;;;;5094515;28;20040;-85
2021/09/14 01:39:22;;;;;;;0.00;0.00;;;11.10;99.90;;;;;;5077385;28;20130;-85
2021/09/14 01:41:49;;;;;;;0.00;0.00;;;11.20;99.90;;;;;;5111070;28;20059;-85
2021/09/14 01:44:16;;;;;;;0.00;0.00;;;11.20;99.90;;;;;;5093589;28;20078;-85
2021/09/14 01:46:43;;;;;;;0.00;0.00;;;11.30;99.90;;;;;;5077124;28;20039;-85
2021/09/14 01:49:10;;;;;;;0.10;0.10;;;11.40;99.90;;;;;;5077397;28;20398;-85
2021/09/14 01:51:37;;;;;;;0.05;0.03;;;11.40;99.90;;;;;;5077290;28;20040;-85
2021/09/14 01:54:04;;;;;;;0.00;0.00;;;11.40;99.90;;;;;;5093682;28;20097;-85
2021/09/14 01:56:31;;;;;;;0.00;0.00;;;11.50;99.90;;;;;;5093570;28;20042;-85
2021/09/14 01:58:58;;;;;;;0.00;0.00;;;11.50;99.90;;;;;;5077276;28;20036;-85
2021/09/14 02:01:29;;;;;;;0.00;0.00;;;11.60;99.90;;;;;;5093332;28;20086;-85
2021/09/14 02:04:07;;;;;;;0.00;0.00;;;11.60;99.90;;;;;;5078511;28;20039;-85
2021/09/14 02:42:21;;;;;;;0.08;0.08;;;12.30;99.90;;;;;;5110261;28;20512;-85
2021/09/14 03:00:59;;;;;;;0.00;0.00;;;12.50;99.90;;;;;;5112288;28;20036;-85
2021/09/14 03:03:26;;;;;;;0.00;0.00;;;12.50;99.90;;;;;;5109500;28;20174;-85
2021/09/14 03:05:53;;;;;;;0.00;0.00;;;12.50;99.90;;;;;;5093029;28;20040;-85
2021/09/14 03:08:20;;;;;;;0.00;0.00;;;12.50;99.90;;;;;;5076348;28;20044;-85
2021/09/14 03:10:46;;;;;;;0.00;0.00;;;12.60;99.90;;;;;;5076410;28;20131;-85
2021/09/14 03:13:13;;;;;;;0.00;0.00;;;12.60;99.90;;;;;;5092738;28;20048;-85
2021/09/14 03:15:40;;;;;;;0.10;0.10;;;12.60;99.90;;;;;;5092501;28;20058;-85
2021/09/14 03:18:07;;;;;;;0.00;0.00;;;12.60;99.90;;;;;;5093176;28;20044;-85
2021/09/14 03:20:34;;;;;;;0.00;0.00;;;12.70;99.90;;;;;;5093458;28;20078;-85
2021/09/14 03:23:00;;;;;;;0.00;0.00;;;12.60;99.90;;;;;;5079992;28;20071;-85
2021/09/14 03:25:27;;;;;;;0.00;0.00;;;12.60;99.90;;;;;;5096353;28;20372;-84
2021/09/14 03:27:54;;;;;;;0.00;0.00;;;12.60;99.90;;;;;;5080046;28;20036;-85
2021/09/14 03:30:21;;;;;;;0.00;0.00;;;12.60;99.90;;;;;;5079552;28;20070;-85
2021/09/14 03:32:47;;;;;;;0.00;0.00;;;12.60;99.90;;;;;;5079611;28;20399;-85
2021/09/14 03:35:14;;;;;;;0.00;0.00;;;12.60;99.90;;;;;;5079731;28;20040;-85
2021/09/14 03:37:41;;;;;;;0.00;0.00;;;12.60;99.90;;;;;;5095868;28;20472;-85
2021/09/14 03:40:08;;;;;;;0.00;0.00;;;12.60;99.90;;;;;;5079586;28;20047;-85
2021/09/14 03:42:35;;;;;;;0.00;0.00;;;12.70;99.90;;;;;;5112677;28;20498;-85
2021/09/14 03:45:01;;;;;;;0.00;0.00;;;12.60;99.90;;;;;;5096212;28;20044;-85
2021/09/14 03:47:28;;;;;;;0.00;0.00;;;12.70;99.90;;;;;;5079422;28;20043;-84
2021/09/14 03:49:55;;;;;;;0.00;0.00;;;12.70;99.90;;;;;;5096028;28;20044;-85
2021/09/14 03:52:22;;;;;;;0.00;0.00;;;12.60;99.90;;;;;;5079069;28;20075;-85
2021/09/14 03:54:48;;;;;;;0.10;0.10;;;12.70;99.90;;;;;;5096001;28;20549;-85
2021/09/14 03:57:15;;;;;;;0.00;0.00;;;12.60;99.90;;;;;;5095990;28;20035;-85
2021/09/14 03:59:42;;;;;;;0.10;0.10;;;12.60;99.90;;;;;;5095616;28;20035;-85
2021/09/14 04:02:17;;;;;;;0.00;0.00;;;12.70;99.90;;;;;;5112785;28;20525;-85
2021/09/14 04:07:26;;;;;;;0.00;0.00;;;12.70;99.90;;;;;;5099289;28;20048;-85
2021/09/14 04:09:53;;;;;;;0.00;0.00;;;12.70;99.90;;;;;;5080038;28;20044;-85
2021/09/14 04:12:20;;;;;;;0.00;0.00;;;12.60;99.90;;;;;;5078984;28;20036;-85
2021/09/14 04:14:46;;;;;;;0.00;0.00;;;12.60;99.90;;;;;;5078375;28;20407;-85
2021/09/14 04:17:13;;;;;;;0.00;0.00;;;12.50;99.90;;;;;;5079379;28;20047;-85
2021/09/14 04:19:40;;;;;;;0.00;0.00;;;12.40;99.90;;;;;;5078694;28;20036;-84
2021/09/14 04:22:06;;;;;;;0.00;0.00;;;12.40;99.90;;;;;;5079146;28;20036;-85
2021/09/14 04:24:33;;;;;;;0.00;0.00;;;12.30;99.90;;;;;;5111925;28;20113;-85
2021/09/14 04:27:00;;;;;;;0.22;0.22;;;12.20;99.90;;;;;;5095319;28;20051;-84
2021/09/14 04:29:27;;;;;;;0.00;0.00;;;12.20;99.90;;;;;;5128499;28;20396;-85
2021/09/14 04:31:54;;;;;;;0.00;0.00;;;12.10;99.90;;;;;;5111853;28;20040;-85
2021/09/14 04:34:21;;;;;;;0.03;0.03;;;12.10;99.90;;;;;;5095071;28;20130;-84
2021/09/14 04:36:47;;;;;;;0.25;0.00;;;12.00;99.90;;;;;;5094933;28;20505;-83
2021/09/14 04:39:14;;;;;;;0.00;0.00;;;12.00;99.90;;;;;;5112124;28;20123;-84
2021/09/14 04:41:41;;;;;;;0.10;0.10;;;11.90;99.90;;;;;;5094928;28;20080;-85
2021/09/14 04:44:08;;;;;;;0.00;0.00;;;11.90;99.90;;;;;;5078513;28;20134;-84
2021/09/14 04:46:35;;;;;;;0.00;0.00;;;11.90;99.90;;;;;;5094963;28;20043;-85
2021/09/14 04:49:01;;;;;;;0.10;0.10;;;11.90;99.90;;;;;;5094773;28;20043;-85
2021/09/14 04:51:28;;;;;;;0.00;0.00;;;11.90;99.90;;;;;;5093634;28;20035;-86
2021/09/14 04:53:55;;;;;;;0.00;0.00;;;11.80;99.90;;;;;;5094025;28;20048;-85
2021/09/14 04:56:21;;;;;;;0.05;0.05;;;11.80;99.90;;;;;;5094049;28;20068;-85
2021/09/14 04:58:50;;;;;;;0.00;0.00;;;11.80;99.90;;;;;;5093563;28;20040;-85
2021/09/14 05:01:17;;;;;;;0.00;0.00;;;11.80;99.90;;;;;;5078294;28;20368;-84
2021/09/14 05:03:44;;;;;;;0.00;0.00;;;11.80;99.90;;;;;;5094255;28;20044;-85
2021/09/14 05:06:11;;;;;;;0.68;0.25;;;11.80;99.90;;;;;;5110855;28;20501;-85
2021/09/14 05:08:38;;;;;;;0.00;0.00;;;11.70;99.90;;;;;;5077625;28;20449;-85
2021/09/14 05:11:05;;;;;;;0.10;0.08;;;11.70;99.90;;;;;;5111146;28;20044;-85
2021/09/14 05:13:33;;;;;;;0.00;0.00;;;11.70;99.90;;;;;;5094157;28;20051;-85
2021/09/14 05:16:00;;;;;;;0.00;0.00;;;11.70;99.90;;;;;;5112382;28;20047;-85
2021/09/14 05:18:28;;;;;;;0.00;0.00;;;11.60;99.90;;;;;;5079047;28;20057;-84
2021/09/14 05:20:56;;;;;;;0.00;0.00;;;11.60;99.90;;;;;;5094315;28;20131;-84
2021/09/14 05:23:30;;;;;;;0.00;0.00;;;11.60;99.90;;;;;;5094547;28;20104;-85
2021/09/14 05:26:02;;;;;;;0.00;0.00;;;11.60;99.90;;;;;;5095251;28;20044;-85
2021/09/14 05:28:30;;;;;;;0.00;0.00;;;11.60;99.90;;;;;;5111032;28;20387;-84
2021/09/14 05:30:58;;;;;;;0.00;0.00;;;11.60;99.90;;;;;;5110491;28;20040;-84
2021/09/14 05:33:25;;;;;;;0.00;0.00;;;11.60;99.90;;;;;;5111017;28;20040;-84
2021/09/14 05:35:54;;;;;;;0.00;0.00;;;11.60;99.90;;;;;;5094151;28;20479;-84
2021/09/14 05:38:23;;;;;;;0.00;0.00;;;11.60;99.90;;;;;;5094866;28;20044;-85
2021/09/14 05:40:53;;;;;;;0.22;0.15;;;11.70;99.90;;;;;;5110412;28;20398;-84
2021/09/14 05:43:26;;;;;;;0.00;0.00;;;11.70;99.90;;;;;;5110323;28;20032;-85
2021/09/14 05:45:55;;;;;;;0.00;0.00;;;11.70;99.90;;;;;;5094031;28;20479;-85
2021/09/14 05:48:21;;;;;;;0.00;0.00;;;11.70;99.90;;;;;;5110839;28;20040;-84
2021/09/14 05:50:48;;;;;;;0.00;0.00;;;11.80;99.90;;;;;;5093945;28;20044;-85
2021/09/14 05:53:15;;;;;;;0.00;0.00;;;11.80;99.90;;;;;;5093808;28;20101;-84
2021/09/14 05:55:42;;;;;;;0.00;0.00;;;11.80;99.90;;;;;;5077116;28;20035;-85
2021/09/14 05:58:08;;;;;;;0.00;0.00;;;11.80;99.90;;;;;;5127126;28;20039;-84
2021/09/14 06:00:36;;;;;;;0.00;0.00;;;11.90;99.90;;;;;;5093945;28;20423;-84
2021/09/14 06:03:03;;;;;;;0.00;0.00;;;11.90;99.90;;;;;;5110338;28;20101;-85
2021/09/14 06:05:30;;;;;;;0.00;0.00;;;11.90;99.90;;;;;;5110647;28;20480;-86
2021/09/14 06:07:57;;;;;;;0.00;0.00;;;11.90;99.90;;;;;;5093595;28;20096;-85
2021/09/14 06:10:24;;;;;;;0.00;0.00;;;12.00;99.90;;;;;;5077066;28;20039;-85
2021/09/14 06:12:50;;;;;;;0.00;0.00;;;12.00;99.90;;;;;;5096070;28;20059;-85
2021/09/14 06:15:17;;;;;;;0.00;0.00;;;12.00;99.90;;;;;;5080551;28;20504;-85
2021/09/14 06:17:44;;;;;;;0.00;0.00;;;12.10;99.90;;;;;;5113665;28;20043;-84
2021/09/14 06:20:11;;;;;;;0.00;0.00;;;12.10;99.90;;;;;;5114199;28;20078;-87
2021/09/14 06:22:41;;;;;;;0.00;0.00;;;12.20;99.90;;;;;;5113710;28;20078;-87
2021/09/14 06:25:08;;;;;;;0.00;0.00;;;12.30;99.90;;;;;;5114028;28;20087;-86
2021/09/14 06:27:35;;;;;;;0.00;0.00;;;12.30;99.90;;;;;;5097394;28;20104;-85
2021/09/14 06:30:02;;;;;;;0.00;0.00;;;12.30;99.90;;;;;;5080304;28;20043;-84
2021/09/14 06:32:29;;;;;;;0.00;0.00;;;12.40;99.90;;;;;;5097421;28;20108;-84
2021/09/14 06:34:56;;;;;;;0.00;0.00;;;12.40;99.90;;;;;;5113753;28;20040;-84
2021/09/14 06:37:22;;;;;;;0.00;0.00;;;12.40;99.90;;;;;;5114047;28;20096;-83
2021/09/14 06:39:52;;;;;;;0.00;0.00;;;12.50;99.90;;;;;;5113839;28;20071;-85
2021/09/14 06:42:19;;;;;;;0.00;0.00;;;12.50;99.90;;;;;;5080904;28;20089;-84
2021/09/14 06:44:45;;;;;;;0.00;0.00;;;12.50;99.90;;;;;;5080325;28;20039;-86
2021/09/14 06:47:12;;;;;;;0.00;0.00;;;12.60;99.90;;;;;;5096727;28;20051;-85
2021/09/14 06:49:39;;;;;;;0.00;0.00;;;12.70;99.90;;;;;;5080045;28;20039;-85
2021/09/14 06:52:06;;;;;;;0.00;0.00;;;12.70;99.90;;;;;;5080192;28;20383;-85
2021/09/14 06:54:33;;;;;;;0.08;0.08;;;12.80;99.90;;;;;;5096637;28;20043;-86
2021/09/14 06:56:59;;;;;;;0.10;0.10;;;12.90;99.90;;;;;;5099755;28;20035;-85
2021/09/14 06:59:26;;;;;;;0.00;0.00;;;12.90;99.90;;;;;;5084115;28;20036;-84
2021/09/14 07:01:53;;;;;;;0.00;0.00;;;13.10;99.90;;;;;;5083774;28;20372;-85
2021/09/14 07:04:19;;;;;;;0.00;0.00;;;13.10;99.90;;;;;;5100658;28;20455;-85
2021/09/14 07:06:49;;;;;;;0.10;0.10;;;13.20;99.90;;;;;;5083699;28;20130;-85
2021/09/14 07:09:17;;;;;;;0.00;0.00;;;13.30;99.90;;;;;;5117255;28;20039;-85
2021/09/14 07:11:44;;;;;;;0.00;0.00;;;13.40;99.90;;;;;;5083691;28;20039;-86
2021/09/14 07:14:11;;;;;;;0.25;0.22;;;13.80;99.90;;;;;;5116393;28;20052;-85
2021/09/14 07:16:38;;;;;;;0.00;0.00;;;13.60;99.90;;;;;;5102922;28;20043;-85
2021/09/14 07:19:05;;;;;;;0.00;0.00;;;13.70;99.90;;;;;;5086610;28;20043;-85
2021/09/14 07:21:32;;;;;;;0.00;0.00;;;13.80;99.90;;;;;;5116921;28;20048;-85
2021/09/14 07:23:58;;;;;;;0.00;0.00;;;13.90;99.90;;;;;;5099886;28;20046;-85
2021/09/14 07:26:25;;;;;;;0.00;0.00;;;14.00;99.90;;;;;;5100417;28;20497;-85
2021/09/14 07:28:52;;;;;;;0.00;0.00;;;14.00;99.90;;;;;;5083373;28;20394;-86
2021/09/14 07:31:19;;;;;;;0.00;0.00;;;14.10;99.90;;;;;;5116762;28;20035;-85
2021/09/14 07:33:48;;;;;;;0.00;0.00;;;14.20;99.90;;;;;;5083570;28;20126;-85
2021/09/14 07:36:15;;;;;;;0.10;0.10;;;14.30;99.90;;;;;;5083629;28;20038;-86
2021/09/14 07:38:43;;;;;;;0.10;0.10;;;14.50;99.90;;;;;;5100216;28;20479;-86
2021/09/14 07:41:10;;;;;;;0.00;0.00;;;14.60;99.90;;;;;;5099775;28;20468;-84
2021/09/14 07:43:36;;;;;;;0.00;0.00;;;14.60;99.90;;;;;;5099980;28;20040;-83
2021/09/14 07:46:03;;;;;;;0.50;0.30;;;14.70;99.90;;;;;;5082561;28;20098;-85
2021/09/14 07:48:30;;;;;;;0.00;0.00;;;14.80;99.90;;;;;;5079151;28;20055;-84
2021/09/14 07:50:56;;;;;;;0.00;0.00;;;14.90;99.90;;;;;;5073299;28;20039;-84
2021/09/14 07:53:23;;;;;;;0.00;0.00;;;15.00;99.90;;;;;;5082754;28;20505;-84
2021/09/14 07:55:50;;;;;;;0.00;0.00;;;15.20;99.90;;;;;;5082786;28;20546;-84
2021/09/14 07:58:16;;;;;;;0.03;0.03;;;15.30;99.90;;;;;;5083066;28;20035;-82
2021/09/14 08:00:43;;;;;;;0.10;0.10;;;15.40;99.90;;;;;;5099345;28;20100;-84
2021/09/14 08:03:11;;;;;;;0.00;0.00;;;15.50;99.90;;;;;;5082458;28;20123;-84
2021/09/14 08:05:39;;;;;;;0.03;0.03;;;15.70;99.90;;;;;;5099160;28;20082;-84
2021/09/14 08:08:07;;;;;;;0.00;0.00;;;15.80;99.90;;;;;;5115273;28;20139;-84
2021/09/14 08:10:34;;;;;;;0.00;0.00;;;15.90;99.90;;;;;;5099420;28;20096;-84
2021/09/14 08:13:01;;;;;;;0.10;0.08;;;16.00;99.90;;;;;;5098692;28;20046;-83
2021/09/14 08:15:28;;;;;;;0.22;0.15;;;16.10;99.90;;;;;;5116302;28;20051;-87
2021/09/14 08:17:55;;;;;;;0.80;0.35;;;16.20;99.90;;;;;;5082691;28;20036;-86
2021/09/14 08:20:22;;;;;;;0.43;0.30;;;16.40;99.90;;;;;;5099594;28;20044;-86
2021/09/14 08:22:49;;;;;;;0.43;0.28;;;16.40;99.90;;;;;;5099663;28;20371;-86
2021/09/14 08:25:15;;;;;;;1.17;0.32;;;16.60;99.90;;;;;;5099433;28;20047;-86
2021/09/14 08:27:42;;;;;;;0.68;0.40;;;16.60;99.90;;;;;;5099868;28;20490;-87
2021/09/14 08:30:10;;;;;;;0.10;0.10;;;16.80;99.90;;;;;;5082534;28;20036;-84
2021/09/14 08:32:37;;;;;;;0.77;0.30;;;16.90;99.90;;;;;;5099224;28;20043;-82
2021/09/14 08:35:03;;;;;;;0.32;0.32;;;17.00;99.90;;;;;;5115054;28;20040;-83
2021/09/14 08:37:30;;;;;;;1.17;0.55;;;17.00;99.90;;;;;;5098769;28;20047;-83
2021/09/14 08:39:57;;;;;;;0.50;0.40;;;17.10;99.90;;;;;;5098691;28;20031;-82
2021/09/14 08:42:24;;;;;;;0.65;0.40;;;17.20;99.90;;;;;;5098963;28;20138;-83
2021/09/14 08:44:51;;;;;;;0.70;0.32;;;17.40;99.90;;;;;;5115654;28;20038;-83
2021/09/14 08:47:22;;;;;;;0.57;0.30;;;17.50;99.90;;;;;;5081939;28;20046;-84
2021/09/14 08:49:48;;;;;;;0.10;0.10;;;17.50;99.90;;;;;;5115170;28;20048;-84
2021/09/14 08:52:15;;;;;;;0.68;0.40;;;17.60;99.90;;;;;;5081985;28;20698;-85
2021/09/14 08:54:42;;;;;;;2.00;0.63;;;17.70;99.90;;;;;;5098418;28;20036;-83
2021/09/14 08:57:09;;;;;;;0.77;0.47;;;17.80;99.90;;;;;;5098237;28;20042;-85
2021/09/14 08:59:36;;;;;;;0.80;0.43;;;18.00;99.90;;;;;;5081624;28;20038;-84
2021/09/14 09:02:06;;;;;;;1.27;0.52;;;18.00;99.90;;;;;;5097987;28;20039;-84
2021/09/14 09:04:33;;;;;;;2.65;0.45;;;18.10;99.90;;;;;;5131644;28;20120;-84
2021/09/14 09:07:00;;;;;;;0.20;0.17;;;18.20;99.90;;;;;;5097701;28;20036;-86
2021/09/14 09:09:27;;;;;;;1.30;0.55;;;18.30;99.90;;;;;;5098410;28;20035;-85
2021/09/14 09:12:05;;;;;;;0.68;0.40;;;18.40;99.90;;;;;;5098023;28;20035;-85
2021/09/14 09:14:43;;;;;;;0.52;0.20;;;18.40;99.90;;;;;;5131346;28;20074;-87
2021/09/14 09:17:18;;;;;;;1.75;0.60;;;18.50;99.90;;;;;;5097626;28;20035;-88
2021/09/14 09:19:57;;;;;;;7.68;0.57;;;18.60;99.90;;;;;;5130629;28;20190;-83
2021/09/14 09:22:25;;;;;;;1.65;0.65;;;18.70;99.90;;;;;;5113764;28;20069;-83
2021/09/14 09:24:54;;;;;;;3.45;0.82;;;18.70;99.90;;;;;;5080872;28;20039;-83
2021/09/14 09:27:24;;;;;;;1.17;0.68;;;18.90;99.90;;;;;;5113990;28;20134;-84
2021/09/14 09:30:09;;;;;;;2.65;0.40;;;19.00;99.90;;;;;;5093914;28;20035;-85
2021/09/14 09:32:47;;;;;;;1.08;0.65;;;19.10;99.90;;;;;;5112968;28;20032;-83
2021/09/14 09:35:43;;;;;;;0.88;0.60;;;19.20;99.90;;;;;;5093548;28;20081;-84
2021/09/14 09:38:10;;;;;;;0.95;0.63;;;19.20;99.90;;;;;;5093189;28;20066;-83
2021/09/14 09:40:41;;;;;;;1.73;0.70;;;19.30;99.90;;;;;;5072286;28;20395;-84
2021/09/14 09:43:09;;;;;;;1.92;0.80;;;19.40;99.90;;;;;;5077240;28;20487;-85
2021/09/14 09:45:42;;;;;;;1.23;0.68;;;19.40;99.90;;;;;;5074422;28;20462;-85
2021/09/14 09:48:10;;;;;;;1.20;0.63;;;19.40;99.90;;;;;;5113997;28;20035;-84
2021/09/14 09:50:41;;;;;;;2.33;0.93;;;19.40;99.90;;;;;;5113261;28;20035;-85
2021/09/14 09:53:09;;;;;;;1.42;0.55;;;19.30;99.90;;;;;;5096344;28;20038;-85
2021/09/14 09:55:36;;;;;;;2.72;1.10;;;19.30;99.90;;;;;;5095040;28;20119;-83
2021/09/14 09:58:05;;;;;;;1.10;0.70;;;19.40;99.90;;;;;;5084426;28;20063;-83
2021/09/14 10:00:38;;;;;;;1.20;0.57;;;19.50;99.90;;;;;;5110092;28;20074;-85
2021/09/14 10:03:18;;;;;;;2.13;0.65;;;19.60;99.90;;;;;;5084178;28;20027;-83
2021/09/14 10:05:50;;;;;;;3.40;0.93;;;19.80;99.90;;;;;;5093894;28;20040;-85
2021/09/14 10:08:23;;;;;;;2.38;0.90;;;19.90;99.90;;;;;;5110302;28;20047;-84
2021/09/14 10:10:58;;;;;;;1.60;0.77;;;20.00;99.90;;;;;;5077112;28;20123;-84
2021/09/14 10:13:35;;;;;;;1.42;0.80;;;20.00;99.90;;;;;;5076248;28;20059;-84
2021/09/14 10:16:02;;;;;;;1.83;0.60;;;20.10;99.90;;;;;;5093809;28;20043;-85
2021/09/14 10:18:31;;;;;;;1.55;0.90;;;20.20;99.90;;;;;;5076902;28;20043;-84
2021/09/14 10:20:59;;;;;;;1.33;0.68;;;20.30;99.90;;;;;;5093909;28;20040;-85
2021/09/14 10:23:31;;;;;;;0.60;0.52;;;20.30;99.90;;;;;;5077570;28;20047;-86
2021/09/14 10:26:05;;;;;;;0.90;0.40;;;20.30;99.90;;;;;;5094085;28;20047;-85
2021/09/14 10:28:49;;;;;;;1.30;0.65;;;20.30;99.90;;;;;;5093692;28;20050;-87
2021/09/14 10:31:20;;;;;;;0.80;0.50;;;20.40;99.90;;;;;;5097309;28;20044;-86
2021/09/14 10:33:47;;;;;;;0.57;0.40;;;20.40;99.90;;;;;;5098037;28;20483;-86
2021/09/14 10:36:14;;;;;;;1.48;0.80;;;20.40;99.90;;;;;;5081454;28;20123;-87
2021/09/14 10:38:51;;;;;;;1.95;0.70;;;20.40;99.90;;;;;;5092073;28;20040;-87
2021/09/14 10:41:18;;;;;;;1.05;0.63;;;20.50;99.90;;;;;;5098458;28;20142;-87
2021/09/14 10:43:57;;;;;;;1.15;0.60;;;20.60;99.90;;;;;;5097532;28;20504;-85
2021/09/14 10:46:24;;;;;;;1.83;0.90;;;20.60;99.90;;;;;;5096918;28;20426;-86
2021/09/14 10:48:54;;;;;;;1.48;0.65;;;20.60;99.90;;;;;;5088355;28;20042;-85
2021/09/14 10:51:21;;;;;;;1.80;0.80;;;20.50;99.90;;;;;;5116993;28;20039;-85
2021/09/14 10:53:56;;;;;;;0.65;0.40;;;20.50;99.90;;;;;;5100421;28;20050;-84
2021/09/14 10:56:24;;;;;;;2.58;1.17;;;20.50;99.90;;;;;;5117241;28;20067;-85
2021/09/14 10:58:51;;;;;;;1.23;0.43;;;20.50;99.90;;;;;;5084127;28;20502;-85
2021/09/14 11:01:27;;;;;;;1.65;0.65;;;20.60;99.90;;;;;;5100533;28;20078;-85
2021/09/14 11:04:00;;;;;;;0.75;0.43;;;20.70;99.90;;;;;;5101752;28;20832;-85
2021/09/14 11:06:28;;;;;;;1.10;0.57;;;20.80;99.90;;;;;;5117292;28;20040;-88
2021/09/14 11:08:59;;;;;;;0.75;0.50;;;20.90;99.90;;;;;;5117591;28;20398;-85
2021/09/14 11:11:27;;;;;;;3.40;0.80;;;21.10;99.90;;;;;;5100390;28;20039;-89
2021/09/14 11:13:55;;;;;;;1.90;0.65;;;21.20;99.90;;;;;;5116939;28;20084;-88
2021/09/14 11:16:22;;;;;;;1.15;0.50;;;21.40;99.90;;;;;;5100386;28;20132;-86
2021/09/14 11:18:49;;;;;;;0.85;0.57;;;21.50;99.90;;;;;;5117262;28;20112;-84
2021/09/14 11:21:18;;;;;;;0.22;0.20;;;21.80;99.90;;;;;;5133989;28;20046;-84
2021/09/14 11:23:49;;;;;;;2.55;0.90;;;21.90;99.90;;;;;;5116839;28;20483;-84
2021/09/14 11:26:19;;;;;;;2.78;0.60;;;21.90;99.90;;;;;;5100385;28;20049;-84
2021/09/14 11:28:57;;;;;;;2.33;0.85;;;22.00;99.90;;;;;;5133326;28;20434;-84
2021/09/14 11:31:31;;;;;;;1.52;0.82;;;22.00;99.90;;;;;;5116276;28;20149;-84
2021/09/14 11:34:01;;;;;;;1.33;0.80;;;22.00;99.90;;;;;;5116703;28;20093;-83
2021/09/14 11:36:28;;;;;;;1.48;0.80;;;22.00;99.90;;;;;;5133090;28;20471;-83
2021/09/14 11:38:59;;;;;;;1.23;0.65;;;22.10;99.90;;;;;;5083264;28;20074;-85
2021/09/14 11:41:37;;;;;;;0.65;0.32;;;22.10;99.90;;;;;;5115863;28;20035;-85
2021/09/14 11:44:06;;;;;;;0.70;0.50;;;22.00;99.90;;;;;;5116603;28;20443;-85
2021/09/14 11:46:33;;;;;;;0.52;0.50;;;21.80;99.90;;;;;;5116081;28;20556;-84
2021/09/14 11:49:05;;;;;;;0.80;0.50;;;21.80;99.90;;;;;;5083091;28;20136;-85
2021/09/14 11:51:39;;;;;;;2.90;0.70;;;21.80;99.90;;;;;;5115972;28;20126;-85
2021/09/14 11:54:11;;;;;;;2.28;1.00;;;21.80;99.90;;;;;;5116351;28;20071;-85
2021/09/14 11:56:38;;;;;;;1.35;0.55;;;22.00;99.90;;;;;;5116170;28;20499;-84
2021/09/14 11:59:16;;;;;;;0.60;0.40;;;22.10;99.90;;;;;;5112406;28;20046;-84
2021/09/14 12:01:44;;;;;;;1.70;0.73;;;22.20;99.90;;;;;;5116047;28;20544;-83
2021/09/14 12:04:18;;;;;;;1.27;0.70;;;22.30;99.90;;;;;;5095750;28;20399;-84
2021/09/14 12:06:54;;;;;;;2.15;0.88;;;22.30;99.90;;;;;;5076706;28;20040;-85
2021/09/14 12:09:22;;;;;;;3.13;0.82;;;22.30;99.90;;;;;;5116122;28;20043;-84
2021/09/14 12:12:03;;;;;;;1.05;0.57;;;22.40;99.90;;;;;;5099449;28;20036;-85
2021/09/14 12:14:30;;;;;;;2.13;0.73;;;22.30;99.90;;;;;;5115332;28;20120;-85
2021/09/14 12:16:59;;;;;;;2.85;0.75;;;22.30;99.90;;;;;;5115818;28;20044;-84
2021/09/14 12:19:26;;;;;;;1.15;0.60;;;22.20;99.90;;;;;;5082531;28;20059;-83
2021/09/14 12:21:53;;;;;;;0.98;0.50;;;22.20;99.90;;;;;;5115671;28;20071;-84
2021/09/14 12:24:20;;;;;;;1.25;0.60;;;22.30;99.90;;;;;;5115896;28;20077;-85
2021/09/14 12:26:51;;;;;;;1.95;1.23;;;22.30;99.90;;;;;;5115109;28;20047;-83
2021/09/14 12:29:19;;;;;;;1.58;0.80;;;22.30;99.90;;;;;;5098829;28;20527;-84
2021/09/14 12:31:48;;;;;;;1.27;0.65;;;22.30;99.90;;;;;;5115119;28;20458;-84
2021/09/14 12:34:16;;;;;;;1.10;0.68;;;22.30;99.90;;;;;;5115646;28;20040;-84
2021/09/14 12:36:44;;;;;;;1.17;0.50;;;22.20;99.90;;;;;;5081828;28;20035;-84
2021/09/14 12:39:12;;;;;;;1.13;0.70;;;22.20;99.90;;;;;;5082464;28;20038;-84
2021/09/14 12:41:39;;;;;;;1.40;0.70;;;22.20;99.90;;;;;;5098291;28;20054;-83
2021/09/14 12:44:09;;;;;;;1.02;0.57;;;22.20;99.90;;;;;;5098699;28;20562;-87
2021/09/14 12:46:47;;;;;;;2.33;0.65;;;22.20;99.90;;;;;;5098666;28;20047;-89
2021/09/14 12:49:14;;;;;;;2.08;0.82;;;22.20;99.90;;;;;;5091000;28;20615;-86
2021/09/14 12:51:41;;;;;;;1.20;0.73;;;22.20;99.90;;;;;;5073847;28;20040;-85
2021/09/14 12:54:07;;;;;;;1.00;0.60;;;22.20;99.90;;;;;;5073090;28;20055;-84
2021/09/14 12:56:34;;;;;;;0.95;0.60;;;22.20;99.90;;;;;;5073491;28;20040;-85
2021/09/14 12:59:03;;;;;;;2.33;0.90;;;22.20;99.90;;;;;;5057643;28;20075;-85
2021/09/14 13:01:30;;;;;;;1.63;0.60;;;22.20;99.90;;;;;;5090045;28;20033;-86
2021/09/14 13:03:57;;;;;;;1.02;0.63;;;22.10;99.90;;;;;;5073994;28;20055;-85
2021/09/14 13:06:23;;;;;;;1.20;0.70;;;22.00;99.90;;;;;;5073685;28;20044;-84
2021/09/14 13:08:50;;;;;;;1.33;0.60;;;22.10;99.90;;;;;;5073874;28;20554;-87
2021/09/14 13:11:17;;;;;;;2.47;0.73;;;22.10;99.90;;;;;;5057654;28;20041;-85
2021/09/14 13:16:29;;;;;;;2.03;1.00;;;22.10;99.90;;;;;;5062053;28;20044;-85
2021/09/14 13:18:56;;;;;;;1.08;0.55;;;22.20;99.90;;;;;;5056642;28;20047;-86
2021/09/14 13:21:24;;;;;;;1.13;0.65;;;22.20;99.90;;;;;;5110709;28;20040;-85
2021/09/14 13:23:51;;;;;;;1.23;0.60;;;22.20;99.90;;;;;;5094575;28;20122;-85
2021/09/14 13:26:20;;;;;;;1.02;0.50;;;22.20;99.90;;;;;;5095005;28;20036;-87
2021/09/14 13:28:47;;;;;;;0.93;0.65;;;22.20;99.90;;;;;;5111063;28;20036;-87
2021/09/14 13:31:15;;;;;;;2.05;1.00;;;22.10;99.90;;;;;;5111366;28;20036;-88
2021/09/14 14:39:29;;;;;;;1.40;0.80;;;21.80;99.90;;;;;;682307;22;20329;-84
2021/09/14 14:41:55;;;;;;;1.27;0.75;;;21.70;99.90;;;;;;4993488;28;20070;-88
2021/09/14 14:44:22;;;;;;;1.45;0.77;;;21.60;99.90;;;;;;4995139;28;20046;-87
2021/09/14 14:46:49;;;;;;;0.98;0.70;;;21.60;99.90;;;;;;4978992;28;20081;-87
2021/09/14 14:49:16;;;;;;;1.33;0.63;;;21.50;99.90;;;;;;4995202;28;20050;-87
2021/09/14 14:51:42;;;;;;;2.28;1.00;;;21.40;99.90;;;;;;4979315;28;20133;-87
2021/09/14 14:54:09;;;;;;;2.20;0.98;;;21.40;99.90;;;;;;4995073;28;20042;-88
2021/09/14 14:56:38;;;;;;;1.25;0.50;;;21.40;99.90;;;;;;4994901;28;20047;-88